Time;durP1;ratioP1;P1;durP2;ratioP2;P2;SDS_P1;SDS_P2;PMS_P1;PMS_P2;Temp;Humidity;BMP_temperature;BMP_pressure;BME280_temperature;BME280_humidity;BME280_pressure;Samples;Min_cycle;Max_cycle;Signal;HPM_P1;HPM_P2
2021/07/15 00:01:59;;;;;;;14.77;4.57;;;18.20;99.90;;;;;;4955525;29;20687;-83
2021/07/15 00:04:25;;;;;;;14.88;4.85;;;18.30;99.90;;;;;;4954147;29;20032;-83
2021/07/15 00:06:51;;;;;;;13.90;4.45;;;18.20;99.90;;;;;;4953976;29;20050;-82
2021/07/15 00:09:17;;;;;;;12.60;4.55;;;18.10;99.90;;;;;;4936756;29;20451;-82
2021/07/15 00:11:46;;;;;;;12.00;4.38;;;18.10;99.90;;;;;;4936930;29;20546;-83
2021/07/15 00:14:14;;;;;;;14.55;4.97;;;18.10;99.90;;;;;;4953738;29;20023;-83
2021/07/15 00:16:40;;;;;;;13.43;5.07;;;18.10;99.90;;;;;;4954115;29;20396;-83
2021/07/15 00:19:11;;;;;;;9.48;4.53;;;18.10;99.90;;;;;;4953844;29;20042;-82
2021/07/15 00:21:37;;;;;;;12.05;4.53;;;18.10;99.90;;;;;;4953638;29;20022;-83
2021/07/15 00:24:04;;;;;;;15.95;4.88;;;18.10;99.90;;;;;;4953840;29;20023;-83
2021/07/15 00:26:30;;;;;;;11.43;4.30;;;18.10;99.90;;;;;;4953221;29;20624;-83
2021/07/15 00:28:55;;;;;;;11.32;4.50;;;18.20;99.90;;;;;;4953455;29;20074;-83
2021/07/15 00:31:21;;;;;;;13.20;4.53;;;18.20;99.90;;;;;;4935674;28;20031;-83
2021/07/15 00:33:47;;;;;;;14.38;4.22;;;18.30;99.90;;;;;;4953114;29;20479;-83
2021/07/15 00:36:14;;;;;;;14.73;4.63;;;18.30;99.90;;;;;;4953333;29;20031;-83
2021/07/15 00:38:39;;;;;;;17.00;4.50;;;18.30;99.90;;;;;;4953279;29;20106;-83
2021/07/15 00:41:06;;;;;;;13.57;4.10;;;18.30;99.90;;;;;;4953369;29;20106;-83
2021/07/15 00:43:32;;;;;;;12.95;3.95;;;18.40;99.90;;;;;;4954754;29;20109;-83
2021/07/15 00:45:58;;;;;;;11.25;4.10;;;18.40;99.90;;;;;;4953484;29;20035;-83
2021/07/15 00:48:24;;;;;;;10.75;3.80;;;18.40;99.90;;;;;;4953346;29;20042;-82
2021/07/15 00:50:51;;;;;;;12.13;3.70;;;18.40;99.90;;;;;;4935714;29;20058;-83
2021/07/15 00:53:18;;;;;;;10.43;4.60;;;18.40;99.90;;;;;;4953194;29;20035;-83
2021/07/15 00:55:45;;;;;;;15.63;4.88;;;18.30;99.90;;;;;;4936014;29;20101;-83
2021/07/15 00:58:13;;;;;;;16.67;4.63;;;18.40;99.90;;;;;;4935776;29;20078;-83
2021/07/15 01:00:42;;;;;;;10.55;4.30;;;18.40;99.90;;;;;;4952904;29;20016;-83
2021/07/15 01:03:09;;;;;;;11.98;4.28;;;18.40;99.90;;;;;;4953002;29;20086;-82
2021/07/15 01:05:48;;;;;;;18.02;4.30;;;18.40;99.90;;;;;;4953012;29;20504;-83
2021/07/15 01:08:16;;;;;;;9.95;3.83;;;18.40;99.90;;;;;;4952575;29;20039;-83
2021/07/15 01:10:51;;;;;;;13.38;4.43;;;18.40;99.90;;;;;;4952827;29;20030;-83
2021/07/15 01:13:29;;;;;;;11.38;3.75;;;18.40;99.90;;;;;;4952820;29;20038;-83
2021/07/15 01:16:13;;;;;;;8.93;4.05;;;18.40;99.90;;;;;;4952628;29;20020;-83
2021/07/15 01:18:48;;;;;;;13.45;4.28;;;18.50;99.90;;;;;;4952579;29;20085;-83
2021/07/15 01:21:46;;;;;;;10.07;3.40;;;18.60;99.90;;;;;;4952535;29;20075;-83
2021/07/15 01:24:49;;;;;;;12.52;4.80;;;18.40;99.90;;;;;;4952731;29;20050;-83
2021/07/15 01:27:33;;;;;;;9.95;4.25;;;18.40;99.90;;;;;;4952361;29;20113;-83
2021/07/15 01:30:09;;;;;;;6.70;3.78;;;18.40;99.90;;;;;;4952421;29;20086;-83
2021/07/15 01:32:54;;;;;;;9.57;3.63;;;18.40;99.90;;;;;;4952283;29;20039;-83
2021/07/15 01:35:24;;;;;;;9.55;4.28;;;18.40;99.90;;;;;;4952469;29;20070;-83
2021/07/15 01:37:52;;;;;;;6.85;3.90;;;18.40;99.90;;;;;;4952200;29;20110;-83
2021/07/15 01:40:21;;;;;;;11.18;4.43;;;18.50;99.90;;;;;;4952382;29;20027;-83
2021/07/15 01:42:53;;;;;;;9.48;4.25;;;18.40;99.90;;;;;;4952082;28;20027;-83
2021/07/15 01:45:19;;;;;;;11.18;4.25;;;18.40;99.90;;;;;;4951513;29;20062;-83
2021/07/15 01:47:45;;;;;;;9.35;4.15;;;18.40;99.90;;;;;;4934916;29;20055;-83
2021/07/15 01:50:11;;;;;;;10.38;4.57;;;18.40;99.90;;;;;;4952265;29;20686;-83
2021/07/15 01:52:37;;;;;;;10.38;4.10;;;18.50;99.90;;;;;;4951945;29;20833;-83
2021/07/15 01:55:04;;;;;;;8.95;4.00;;;18.50;99.90;;;;;;4952005;29;20480;-83
2021/07/15 01:57:30;;;;;;;11.13;5.18;;;18.50;99.90;;;;;;4952075;29;20550;-82
2021/07/15 01:59:58;;;;;;;10.20;4.25;;;18.60;99.90;;;;;;4934830;29;20035;-84
2021/07/15 02:02:27;;;;;;;12.18;4.40;;;18.50;99.90;;;;;;4934397;29;20094;-83
2021/07/15 02:04:54;;;;;;;6.10;4.22;;;18.50;99.90;;;;;;4952027;29;20027;-83
2021/07/15 02:07:22;;;;;;;11.70;4.13;;;18.50;99.90;;;;;;4951760;29;20027;-83
2021/07/15 02:09:50;;;;;;;10.90;4.40;;;18.50;99.90;;;;;;4934708;29;20412;-82
2021/07/15 02:12:20;;;;;;;8.13;4.35;;;18.50;99.90;;;;;;4934798;29;20011;-82
2021/07/15 02:14:53;;;;;;;10.73;4.57;;;18.60;99.90;;;;;;4951940;29;20031;-83
2021/07/15 02:17:22;;;;;;;9.18;4.32;;;18.50;99.90;;;;;;4951645;29;20048;-84
2021/07/15 02:19:49;;;;;;;11.93;4.70;;;18.50;99.90;;;;;;4951668;29;20023;-83
2021/07/15 02:22:17;;;;;;;8.95;4.25;;;18.50;99.90;;;;;;4951605;29;20020;-83
2021/07/15 02:24:46;;;;;;;10.43;4.97;;;18.40;99.90;;;;;;4934502;29;20027;-83
2021/07/15 02:27:13;;;;;;;12.18;4.90;;;18.30;99.90;;;;;;4951931;29;20031;-83
2021/07/15 02:29:39;;;;;;;9.15;4.63;;;18.20;99.90;;;;;;4951683;29;20119;-83
2021/07/15 02:32:07;;;;;;;10.88;4.72;;;18.10;99.90;;;;;;4951843;29;20102;-82
2021/07/15 02:34:45;;;;;;;9.45;4.30;;;18.10;99.90;;;;;;4951639;29;20114;-82
2021/07/15 02:37:14;;;;;;;8.07;4.63;;;18.10;99.90;;;;;;4951396;29;20019;-82
2021/07/15 02:39:40;;;;;;;10.77;5.00;;;17.90;99.90;;;;;;4951835;29;20369;-82
2021/07/15 02:42:05;;;;;;;7.68;4.43;;;17.90;99.90;;;;;;4951490;29;20043;-83
2021/07/15 02:44:32;;;;;;;12.10;4.82;;;17.90;99.90;;;;;;4952024;29;20023;-83
2021/07/15 02:46:58;;;;;;;8.75;4.70;;;17.80;99.90;;;;;;4951650;29;20031;-82
2021/07/15 02:49:24;;;;;;;8.93;4.68;;;17.80;99.90;;;;;;4952114;29;20621;-83
2021/07/15 02:51:49;;;;;;;8.20;4.57;;;17.70;99.90;;;;;;4951701;29;20465;-83
2021/07/15 02:54:16;;;;;;;7.65;4.95;;;17.70;99.90;;;;;;4951392;28;20481;-83
2021/07/15 02:57:02;;;;;;;9.55;4.93;;;17.70;99.90;;;;;;4955065;29;20106;-83
2021/07/15 02:59:32;;;;;;;7.47;4.97;;;17.70;99.90;;;;;;4955090;29;20020;-82
2021/07/15 03:02:23;;;;;;;9.48;4.95;;;17.70;99.90;;;;;;4955311;29;20051;-82
2021/07/15 03:05:06;;;;;;;7.65;4.90;;;17.70;99.90;;;;;;4955460;29;20023;-83
2021/07/15 03:07:36;;;;;;;11.50;4.87;;;17.70;99.90;;;;;;4954998;29;20058;-82
2021/07/15 03:10:04;;;;;;;13.48;5.93;;;17.60;99.90;;;;;;4938304;29;20118;-83
2021/07/15 03:12:36;;;;;;;9.90;6.32;;;17.60;99.90;;;;;;4954877;29;20016;-82
2021/07/15 03:15:03;;;;;;;10.65;5.70;;;17.60;99.90;;;;;;4955044;29;20063;-82
2021/07/15 03:17:36;;;;;;;10.07;5.30;;;17.70;99.90;;;;;;4954633;29;20047;-82
2021/07/15 03:20:13;;;;;;;11.43;5.30;;;17.70;99.90;;;;;;4954865;29;20110;-82
2021/07/15 03:22:41;;;;;;;8.82;5.22;;;17.60;99.90;;;;;;4954641;29;20023;-82
2021/07/15 03:25:11;;;;;;;11.02;5.25;;;17.60;99.90;;;;;;4937649;29;20574;-82
2021/07/15 03:27:41;;;;;;;13.35;5.45;;;17.60;99.90;;;;;;4937601;29;20086;-82
2021/07/15 03:30:08;;;;;;;10.60;5.00;;;17.60;99.90;;;;;;4954718;29;20023;-82
2021/07/15 03:32:36;;;;;;;8.25;5.25;;;17.50;99.90;;;;;;4954797;29;20031;-82
2021/07/15 03:35:05;;;;;;;9.60;5.60;;;17.50;99.90;;;;;;4954251;29;20011;-82
2021/07/15 03:37:31;;;;;;;8.40;5.60;;;17.50;99.90;;;;;;4956425;28;20026;-82
2021/07/15 03:39:57;;;;;;;12.05;5.55;;;17.50;99.90;;;;;;4954679;29;20057;-82
2021/07/15 03:42:23;;;;;;;8.52;5.05;;;17.50;99.90;;;;;;4954476;29;20396;-82
2021/07/15 03:44:50;;;;;;;10.18;5.35;;;17.60;99.90;;;;;;4954592;29;20019;-82
2021/07/15 03:47:17;;;;;;;9.68;5.40;;;17.60;99.90;;;;;;4937236;29;20082;-82
2021/07/15 03:49:45;;;;;;;9.20;5.72;;;17.50;99.90;;;;;;4954420;29;20024;-82
2021/07/15 03:52:13;;;;;;;9.50;5.22;;;17.50;99.90;;;;;;4936903;29;20499;-82
2021/07/15 03:54:43;;;;;;;8.52;5.55;;;17.40;99.90;;;;;;4954387;29;20016;-82
2021/07/15 03:57:16;;;;;;;9.18;5.32;;;17.40;99.90;;;;;;4954156;29;20023;-82
2021/07/15 03:59:50;;;;;;;8.48;5.07;;;17.40;99.90;;;;;;4947613;29;20155;-82
2021/07/15 04:02:19;;;;;;;9.68;5.53;;;17.30;99.90;;;;;;4954348;29;20501;-82
2021/07/15 04:04:52;;;;;;;9.05;6.03;;;17.30;99.90;;;;;;4936961;29;20090;-82
2021/07/15 04:07:19;;;;;;;9.68;6.32;;;17.30;99.90;;;;;;4953111;28;20392;-82
2021/07/15 04:09:46;;;;;;;9.90;5.93;;;17.20;99.90;;;;;;4936842;29;20130;-82
2021/07/15 04:12:13;;;;;;;12.18;6.38;;;17.20;99.90;;;;;;4954041;29;20518;-84
2021/07/15 04:14:39;;;;;;;13.02;7.28;;;17.20;99.90;;;;;;4953954;29;20023;-84
2021/07/15 04:17:07;;;;;;;10.82;6.43;;;17.10;99.90;;;;;;4936645;29;20043;-84
2021/07/15 04:19:35;;;;;;;10.88;6.13;;;17.10;99.90;;;;;;4953690;29;20023;-84
2021/07/15 04:22:05;;;;;;;10.20;6.65;;;17.20;99.90;;;;;;4953773;29;20054;-84
2021/07/15 04:24:33;;;;;;;11.95;6.57;;;17.20;99.90;;;;;;4953651;29;20020;-85
2021/07/15 04:27:00;;;;;;;12.00;6.30;;;17.20;99.90;;;;;;4953652;29;20110;-84
2021/07/15 04:29:28;;;;;;;15.93;6.85;;;17.20;99.90;;;;;;4953441;29;20043;-85
2021/07/15 04:31:58;;;;;;;9.45;6.13;;;17.30;99.90;;;;;;4953821;29;20022;-85
2021/07/15 04:34:27;;;;;;;11.05;6.40;;;17.30;99.90;;;;;;4953445;29;20043;-82
2021/07/15 04:36:55;;;;;;;8.65;6.10;;;17.30;99.90;;;;;;4953349;29;20034;-82
2021/07/15 04:39:23;;;;;;;9.60;5.80;;;17.40;99.90;;;;;;4936385;29;20420;-82
2021/07/15 04:41:49;;;;;;;9.65;5.85;;;17.40;99.90;;;;;;4953449;29;20027;-82
2021/07/15 04:44:15;;;;;;;9.38;6.25;;;17.40;99.90;;;;;;4953513;29;20539;-82
2021/07/15 04:46:42;;;;;;;10.48;5.80;;;17.40;99.90;;;;;;4953434;29;20012;-84
2021/07/15 04:49:08;;;;;;;11.35;5.80;;;17.40;99.90;;;;;;4953120;29;20523;-84
2021/07/15 04:51:39;;;;;;;8.10;5.05;;;17.40;99.90;;;;;;4935802;29;20027;-85
2021/07/15 04:54:05;;;;;;;11.27;6.55;;;17.40;99.90;;;;;;4953322;29;20027;-85
2021/07/15 04:56:32;;;;;;;8.90;5.82;;;17.30;99.90;;;;;;4953065;29;20038;-85
2021/07/15 04:58:59;;;;;;;8.38;5.57;;;17.40;99.90;;;;;;4953221;29;20027;-84
2021/07/15 05:01:25;;;;;;;8.27;5.68;;;17.40;99.90;;;;;;4953122;29;20027;-85
2021/07/15 05:03:51;;;;;;;8.48;5.88;;;17.40;99.90;;;;;;4953071;29;20027;-84
2021/07/15 05:06:19;;;;;;;11.13;5.93;;;17.40;99.90;;;;;;4952801;29;20560;-85
2021/07/15 05:08:44;;;;;;;7.35;5.07;;;17.40;99.90;;;;;;4935763;29;20039;-84
2021/07/15 05:11:12;;;;;;;7.32;5.22;;;17.40;99.90;;;;;;4952890;29;20377;-84
2021/07/15 05:13:38;;;;;;;8.98;6.07;;;17.40;99.90;;;;;;4952914;29;20078;-84
2021/07/15 05:16:05;;;;;;;7.55;5.18;;;17.30;99.90;;;;;;4952353;29;20031;-85
2021/07/15 05:18:30;;;;;;;9.88;5.60;;;17.40;99.90;;;;;;4952553;28;20015;-84
2021/07/15 05:20:56;;;;;;;9.88;5.80;;;17.40;99.90;;;;;;4952448;29;20106;-85
2021/07/15 05:23:22;;;;;;;7.15;5.65;;;17.50;99.90;;;;;;4935274;29;20566;-84
2021/07/15 05:25:50;;;;;;;7.68;5.10;;;17.60;99.90;;;;;;4952733;29;20588;-84
2021/07/15 05:28:16;;;;;;;8.18;5.40;;;17.80;99.90;;;;;;4952503;29;20066;-85
2021/07/15 05:30:41;;;;;;;8.15;5.40;;;17.90;99.90;;;;;;4952515;29;20075;-85
2021/07/15 05:33:07;;;;;;;11.43;5.20;;;18.00;99.90;;;;;;4952744;29;20035;-84
2021/07/15 05:35:33;;;;;;;6.28;4.78;;;18.00;99.90;;;;;;4935069;29;20103;-84
2021/07/15 05:37:59;;;;;;;7.68;5.00;;;18.10;99.90;;;;;;4952163;29;20686;-85
2021/07/15 05:40:25;;;;;;;8.88;5.45;;;18.10;99.90;;;;;;4952177;29;20172;-85
2021/07/15 05:42:50;;;;;;;5.78;4.40;;;18.10;99.90;;;;;;4952396;29;20015;-86
2021/07/15 05:45:16;;;;;;;8.07;4.90;;;18.20;99.90;;;;;;4952307;29;20028;-86
2021/07/15 05:47:42;;;;;;;7.10;5.10;;;18.20;99.90;;;;;;4936717;29;20040;-86
2021/07/15 05:50:08;;;;;;;7.10;5.10;;;18.20;99.90;;;;;;4952150;29;20031;-87
2021/07/15 05:52:34;;;;;;;8.85;5.00;;;18.20;99.90;;;;;;4951675;29;20023;-87
2021/07/15 05:55:00;;;;;;;10.05;5.55;;;18.30;99.90;;;;;;4952312;29;20030;-87
2021/07/15 05:57:26;;;;;;;9.05;5.13;;;18.40;99.90;;;;;;4952520;29;20102;-87
2021/07/15 05:59:52;;;;;;;9.32;5.00;;;18.50;99.90;;;;;;4951533;29;20114;-87
2021/07/15 06:02:18;;;;;;;7.35;4.85;;;18.50;99.90;;;;;;4950071;29;20070;-87
2021/07/15 06:04:44;;;;;;;6.45;4.80;;;18.50;99.90;;;;;;4934270;29;20152;-87
2021/07/15 06:07:10;;;;;;;6.20;4.80;;;18.50;99.90;;;;;;4951070;29;20019;-87
2021/07/15 06:09:36;;;;;;;7.75;4.55;;;18.60;99.90;;;;;;4951213;29;20023;-86
2021/07/15 06:12:01;;;;;;;7.43;5.13;;;18.70;99.90;;;;;;4950954;29;20050;-87
2021/07/15 06:14:27;;;;;;;9.75;4.85;;;18.70;99.90;;;;;;4933744;29;20027;-87
2021/07/15 06:16:53;;;;;;;8.40;4.80;;;18.80;99.90;;;;;;4951088;29;20082;-87
2021/07/15 06:19:18;;;;;;;6.70;4.15;;;18.90;99.90;;;;;;4950819;29;20023;-87
2021/07/15 06:21:44;;;;;;;5.15;4.45;;;18.90;99.90;;;;;;4951323;29;20019;-87
2021/07/15 06:24:10;;;;;;;8.60;4.22;;;18.90;99.90;;;;;;4951703;28;20164;-86
2021/07/15 06:26:36;;;;;;;7.75;4.72;;;19.00;99.90;;;;;;4934732;29;20555;-87
2021/07/15 06:29:03;;;;;;;5.95;4.55;;;19.10;99.90;;;;;;4951946;28;20039;-86
2021/07/15 06:31:29;;;;;;;6.25;4.53;;;19.10;99.90;;;;;;4954806;28;20030;-86
2021/07/15 06:33:54;;;;;;;6.88;4.32;;;19.10;99.90;;;;;;4954217;28;20023;-87
2021/07/15 06:36:20;;;;;;;6.35;4.63;;;19.10;99.90;;;;;;4954032;29;20019;-87
2021/07/15 06:38:47;;;;;;;6.55;4.53;;;19.10;99.90;;;;;;4955527;28;20153;-87
2021/07/15 06:41:13;;;;;;;5.57;4.43;;;19.10;99.90;;;;;;4957295;29;20059;-87
2021/07/15 06:43:39;;;;;;;6.40;4.30;;;19.20;99.90;;;;;;4955535;28;20023;-87
2021/07/15 06:46:06;;;;;;;7.25;5.03;;;19.20;99.90;;;;;;4953945;29;20034;-87
2021/07/15 06:48:32;;;;;;;7.80;4.85;;;19.20;99.90;;;;;;4955375;29;20039;-87
2021/07/15 06:50:57;;;;;;;8.10;5.72;;;19.20;99.90;;;;;;4955259;28;20519;-87
2021/07/15 06:53:23;;;;;;;6.63;5.35;;;19.10;99.90;;;;;;4955196;29;20485;-87
2021/07/15 06:55:49;;;;;;;7.55;4.97;;;19.00;99.90;;;;;;4944567;29;20228;-73
2021/07/15 06:58:15;;;;;;;10.77;5.85;;;19.10;99.90;;;;;;4943994;29;20086;-73
2021/07/15 07:00:41;;;;;;;7.22;4.78;;;19.20;99.90;;;;;;4954134;29;20031;-72
2021/07/15 07:03:06;;;;;;;7.63;5.07;;;19.30;99.90;;;;;;4947499;29;20031;-73
2021/07/15 07:05:32;;;;;;;7.85;5.63;;;19.20;99.90;;;;;;4954911;29;20038;-72
2021/07/15 07:07:58;;;;;;;8.23;5.32;;;19.10;99.90;;;;;;4953763;29;20042;-72
2021/07/15 07:10:24;;;;;;;7.47;5.30;;;19.20;99.90;;;;;;4953861;29;20031;-72
2021/07/15 07:12:50;;;;;;;7.05;5.28;;;19.20;99.90;;;;;;4954483;29;20070;-72
2021/07/15 07:15:18;;;;;;;8.50;5.28;;;19.20;99.90;;;;;;4954070;29;20027;-73
2021/07/15 07:17:45;;;;;;;6.63;4.80;;;19.30;99.90;;;;;;4954046;29;20544;-73
2021/07/15 07:20:12;;;;;;;7.13;4.65;;;19.30;99.90;;;;;;4954237;28;20118;-73
2021/07/15 07:22:39;;;;;;;6.50;4.47;;;19.30;99.90;;;;;;4954299;29;20026;-72
2021/07/15 07:25:06;;;;;;;8.02;4.40;;;19.30;99.90;;;;;;4947433;29;20527;-73
2021/07/15 07:27:33;;;;;;;12.55;5.25;;;19.30;99.90;;;;;;4953660;29;20460;-72
2021/07/15 07:29:59;;;;;;;6.63;5.05;;;19.40;99.90;;;;;;4954218;29;20260;-73
2021/07/15 07:32:25;;;;;;;6.47;4.82;;;19.30;99.90;;;;;;4954029;29;20039;-72
2021/07/15 07:34:51;;;;;;;6.68;4.75;;;19.30;99.90;;;;;;4954180;29;20515;-72
2021/07/15 07:37:17;;;;;;;8.52;4.88;;;19.30;99.90;;;;;;4953854;29;20035;-72
2021/07/15 07:39:43;;;;;;;8.35;5.15;;;19.40;99.90;;;;;;4946722;29;20856;-72
2021/07/15 07:42:08;;;;;;;6.10;5.05;;;19.40;99.90;;;;;;4945882;29;20252;-72
2021/07/15 07:44:34;;;;;;;6.85;4.72;;;19.40;99.90;;;;;;4953758;29;20249;-72
2021/07/15 07:47:00;;;;;;;7.03;4.97;;;19.30;99.90;;;;;;4953602;29;20420;-72
2021/07/15 07:49:25;;;;;;;6.10;4.72;;;19.40;99.90;;;;;;4953456;29;20039;-72
2021/07/15 07:51:51;;;;;;;9.00;4.93;;;19.50;99.90;;;;;;4954100;29;20019;-72
2021/07/15 07:54:17;;;;;;;7.28;5.00;;;19.50;99.90;;;;;;4953686;29;20266;-72
2021/07/15 07:56:42;;;;;;;7.85;5.07;;;19.50;99.90;;;;;;4953588;29;20046;-73
2021/07/15 07:59:08;;;;;;;7.30;4.60;;;19.60;99.90;;;;;;4953677;29;20143;-72
2021/07/15 08:01:35;;;;;;;7.38;4.95;;;19.70;99.90;;;;;;4953082;29;20027;-72
2021/07/15 08:04:02;;;;;;;6.68;4.68;;;19.70;99.90;;;;;;4953368;29;20027;-72
2021/07/15 08:06:33;;;;;;;8.13;4.78;;;19.80;99.90;;;;;;4952958;29;20102;-72
2021/07/15 08:08:59;;;;;;;8.43;4.25;;;19.80;99.90;;;;;;4953267;29;20403;-72
2021/07/15 08:11:26;;;;;;;5.15;4.38;;;19.90;99.90;;;;;;4936006;29;20082;-72
2021/07/15 08:13:52;;;;;;;6.63;4.90;;;19.90;99.90;;;;;;4952926;29;20042;-72
2021/07/15 08:16:18;;;;;;;5.10;4.07;;;19.90;99.90;;;;;;4952966;29;20023;-72
2021/07/15 08:18:43;;;;;;;7.50;4.45;;;20.00;99.90;;;;;;4952481;28;20053;-72
2021/07/15 08:21:09;;;;;;;7.43;4.15;;;20.00;99.90;;;;;;4952923;29;20107;-72
2021/07/15 08:23:35;;;;;;;5.25;4.25;;;19.90;99.90;;;;;;4952881;29;20078;-72
2021/07/15 08:26:00;;;;;;;6.07;4.13;;;20.10;99.90;;;;;;4953055;29;20094;-72
2021/07/15 08:28:26;;;;;;;6.63;4.05;;;20.20;99.90;;;;;;4953512;29;20622;-72
2021/07/15 08:30:52;;;;;;;8.25;4.25;;;20.20;99.90;;;;;;4953383;29;20066;-72
2021/07/15 08:33:17;;;;;;;6.18;4.07;;;20.20;99.90;;;;;;4952980;29;20104;-72
2021/07/15 08:35:43;;;;;;;4.30;3.90;;;20.20;99.90;;;;;;4953000;29;20099;-72
2021/07/15 08:38:10;;;;;;;5.95;3.80;;;20.20;99.90;;;;;;4952510;29;20073;-72
2021/07/15 08:40:36;;;;;;;5.03;3.53;;;20.30;99.90;;;;;;4951843;29;20027;-72
2021/07/15 08:43:03;;;;;;;6.07;3.65;;;20.30;99.90;;;;;;4952162;29;20031;-72
2021/07/15 08:45:29;;;;;;;5.47;4.05;;;20.30;99.90;;;;;;4952044;29;20091;-72
2021/07/15 08:47:56;;;;;;;5.03;3.60;;;20.40;99.90;;;;;;4951863;29;20130;-72
2021/07/15 08:50:22;;;;;;;4.97;3.63;;;20.40;99.90;;;;;;4952560;29;20019;-72
2021/07/15 08:52:48;;;;;;;7.25;4.18;;;20.40;99.90;;;;;;4952460;28;20389;-72
2021/07/15 08:57:42;;;;;;;5.88;3.65;;;20.60;99.90;;;;;;4952232;29;20073;-72
2021/07/15 09:00:10;;;;;;;5.75;3.10;;;20.60;99.90;;;;;;4952266;29;20027;-72
2021/07/15 09:02:36;;;;;;;6.80;3.35;;;20.60;99.90;;;;;;4951048;28;20378;-72
2021/07/15 09:05:05;;;;;;;3.75;3.33;;;20.60;99.90;;;;;;4947123;29;20557;-73
2021/07/15 09:07:31;;;;;;;5.88;3.88;;;20.60;99.90;;;;;;4944152;29;20489;-73
2021/07/15 09:09:57;;;;;;;4.25;3.25;;;20.70;99.90;;;;;;4952127;29;20031;-72
2021/07/15 09:12:22;;;;;;;4.07;3.20;;;20.80;99.90;;;;;;4951863;29;20034;-72
2021/07/15 09:14:50;;;;;;;6.35;3.35;;;20.80;99.90;;;;;;4951894;29;20071;-72
2021/07/15 09:17:25;;;;;;;5.25;3.40;;;20.90;99.90;;;;;;4949887;29;20035;-72
2021/07/15 09:19:51;;;;;;;4.25;3.28;;;21.00;99.90;;;;;;4950790;29;20027;-73
2021/07/15 09:22:17;;;;;;;6.05;3.42;;;21.10;99.90;;;;;;4952223;29;20026;-72
2021/07/15 09:24:45;;;;;;;3.50;3.20;;;21.10;99.90;;;;;;4952123;29;20491;-72
2021/07/15 09:27:20;;;;;;;4.40;3.25;;;21.10;99.90;;;;;;4951630;29;20472;-72
2021/07/15 09:30:01;;;;;;;;;;;21.30;99.90;;;;;;4952393;29;20042;-72
2021/07/15 09:32:27;;;;;;;6.85;3.58;;;21.30;99.90;;;;;;4951568;29;19907;-72
2021/07/15 09:35:05;;;;;;;6.05;3.38;;;21.40;99.90;;;;;;4951811;29;20403;-73
2021/07/15 09:37:36;;;;;;;6.03;3.33;;;21.40;99.90;;;;;;4951242;29;20414;-72
2021/07/15 09:40:05;;;;;;;4.47;3.40;;;21.40;99.90;;;;;;4951929;29;20546;-72
2021/07/15 09:42:31;;;;;;;5.35;3.10;;;21.50;99.90;;;;;;4951370;29;20604;-72
2021/07/15 09:44:57;;;;;;;5.28;3.40;;;21.50;99.90;;;;;;4951866;29;20106;-73
2021/07/15 09:47:47;;;;;;;7.25;3.47;;;21.60;99.90;;;;;;4951499;29;20033;-82
2021/07/15 09:50:15;;;;;;;4.50;3.45;;;21.60;99.90;;;;;;4951662;29;20603;-72
2021/07/15 09:52:42;;;;;;;6.30;3.83;;;21.60;99.90;;;;;;4950914;29;20169;-73
2021/07/15 09:55:21;;;;;;;16.33;4.72;;;21.60;99.90;;;;;;4951639;29;20027;-72
2021/07/15 09:58:14;;;;;;;6.25;3.67;;;21.70;99.90;;;;;;4951190;29;20515;-72
2021/07/15 10:00:45;;;;;;;5.18;3.67;;;21.70;99.90;;;;;;4948508;29;20469;-74
2021/07/15 10:03:13;;;;;;;5.28;3.42;;;21.80;99.90;;;;;;4949768;29;20023;-72
2021/07/15 10:05:52;;;;;;;5.55;3.20;;;21.70;99.90;;;;;;4950656;28;20026;-72
2021/07/15 10:08:25;;;;;;;4.88;3.80;;;21.60;99.90;;;;;;4949392;29;20508;-72
2021/07/15 10:10:52;;;;;;;5.38;3.03;;;21.60;99.90;;;;;;4950869;29;20067;-72
2021/07/15 10:13:23;;;;;;;5.55;3.25;;;21.80;99.90;;;;;;4949866;29;20119;-72
2021/07/15 10:15:50;;;;;;;3.88;3.45;;;21.70;99.90;;;;;;4951226;29;20047;-73
2021/07/15 10:18:37;;;;;;;11.50;3.72;;;21.70;99.90;;;;;;4951127;29;20440;-72
2021/07/15 10:21:03;;;;;;;4.00;3.20;;;21.80;99.90;;;;;;4951126;29;20031;-72
2021/07/15 10:23:34;;;;;;;9.80;4.78;;;21.90;99.90;;;;;;4951137;29;20038;-72
2021/07/15 10:26:01;;;;;;;5.80;3.60;;;21.90;99.90;;;;;;4951132;29;20061;-72
2021/07/15 10:28:28;;;;;;;4.45;3.67;;;22.00;99.90;;;;;;4950968;29;20087;-72
2021/07/15 10:31:05;;;;;;;7.30;3.20;;;22.10;99.90;;;;;;4951118;29;20082;-70
2021/07/15 10:33:32;;;;;;;4.78;2.97;;;22.00;99.90;;;;;;4951700;29;20049;-70
2021/07/15 10:36:00;;;;;;;5.78;2.70;;;22.10;99.90;;;;;;4950857;29;20019;-70
2021/07/15 10:38:30;;;;;;;4.97;2.85;;;22.10;99.90;;;;;;4951025;29;20206;-70
2021/07/15 10:40:59;;;;;;;3.03;2.70;;;22.20;99.90;;;;;;4951250;29;20392;-70
2021/07/15 10:43:25;;;;;;;5.28;3.03;;;22.30;99.90;;;;;;4949732;29;20089;-70
2021/07/15 10:45:59;;;;;;;6.72;3.28;;;22.20;99.90;;;;;;4950692;29;20500;-70
2021/07/15 10:48:25;;;;;;;3.40;2.58;;;22.20;99.90;;;;;;4950970;28;20039;-70
2021/07/15 10:50:51;;;;;;;5.43;2.67;;;22.40;99.90;;;;;;4950944;29;20415;-70
2021/07/15 10:53:18;;;;;;;4.40;2.83;;;22.30;99.90;;;;;;4951165;29;20066;-70
2021/07/15 10:55:45;;;;;;;4.13;2.72;;;22.40;99.90;;;;;;4951057;29;20016;-72
2021/07/15 10:58:11;;;;;;;4.03;3.00;;;22.50;99.90;;;;;;4951170;29;20232;-72
2021/07/15 11:00:48;;;;;;;3.63;2.70;;;22.50;99.90;;;;;;4951163;29;20078;-72
2021/07/15 11:03:24;;;;;;;4.32;2.60;;;22.60;99.90;;;;;;4951196;28;20027;-72
2021/07/15 11:05:55;;;;;;;3.53;2.85;;;22.50;99.90;;;;;;4950753;28;20504;-76
2021/07/15 11:08:48;;;;;;;4.22;2.72;;;22.40;99.90;;;;;;4951022;29;20424;-77
2021/07/15 11:11:15;;;;;;;4.97;2.80;;;22.50;99.90;;;;;;4938619;29;20082;-76
2021/07/15 11:13:44;;;;;;;4.88;2.83;;;22.60;99.90;;;;;;4951303;29;20372;-76
2021/07/15 11:16:10;;;;;;;3.55;2.70;;;22.70;99.90;;;;;;4951692;28;20019;-76
2021/07/15 11:18:46;;;;;;;3.85;2.70;;;22.70;99.90;;;;;;4954170;29;20046;-76
2021/07/15 11:21:24;;;;;;;4.70;2.60;;;22.80;99.90;;;;;;4954084;29;20027;-75
2021/07/15 11:23:51;;;;;;;4.97;2.63;;;22.90;99.90;;;;;;4954264;28;20030;-75
2021/07/15 11:26:34;;;;;;;6.43;2.92;;;22.80;99.90;;;;;;4954479;29;20030;-75
2021/07/15 11:28:59;;;;;;;4.68;2.70;;;22.80;99.90;;;;;;4954292;29;20034;-76
2021/07/15 11:31:41;;;;;;;4.22;2.60;;;22.90;99.90;;;;;;4954222;29;20024;-76
2021/07/15 11:34:08;;;;;;;6.22;2.50;;;23.00;99.90;;;;;;4954709;29;20038;-75
2021/07/15 11:36:35;;;;;;;3.47;2.70;;;23.00;99.90;;;;;;4953747;29;20585;-75
2021/07/15 11:39:06;;;;;;;4.53;2.83;;;22.90;99.90;;;;;;4953999;29;20550;-76
2021/07/15 11:41:43;;;;;;;4.50;3.15;;;22.90;99.90;;;;;;4952539;29;20027;-75
2021/07/15 11:44:09;;;;;;;6.88;2.70;;;22.90;99.90;;;;;;4954466;29;20038;-75
2021/07/15 11:46:36;;;;;;;7.22;2.85;;;23.00;99.90;;;;;;4953700;29;20051;-76
2021/07/15 11:49:19;;;;;;;4.45;3.28;;;23.10;99.90;;;;;;4953721;29;20503;-75
2021/07/15 11:51:46;;;;;;;6.25;3.15;;;23.20;99.90;;;;;;4940919;29;20024;-75
2021/07/15 11:54:17;;;;;;;5.88;3.00;;;23.10;99.90;;;;;;4953864;28;20027;-75
2021/07/15 11:56:46;;;;;;;7.13;3.10;;;23.30;99.90;;;;;;4953555;29;20063;-75
2021/07/15 11:59:30;;;;;;;5.13;2.97;;;23.30;99.90;;;;;;4953484;29;20027;-76
2021/07/15 12:02:07;;;;;;;5.10;3.00;;;23.30;99.90;;;;;;4953328;29;20027;-76
2021/07/15 12:05:12;;;;;;;6.47;3.20;;;23.30;99.90;;;;;;4953655;29;20027;-80
2021/07/15 12:07:39;;;;;;;4.85;3.30;;;23.10;99.90;;;;;;4952676;29;20031;-76
2021/07/15 12:10:11;;;;;;;4.47;3.08;;;23.20;99.90;;;;;;4953655;29;20067;-75
2021/07/15 12:12:41;;;;;;;4.90;2.92;;;23.10;99.90;;;;;;4953612;29;20108;-76
2021/07/15 12:15:14;;;;;;;4.30;3.20;;;23.40;99.90;;;;;;4953463;29;20440;-76
2021/07/15 12:17:41;;;;;;;3.95;3.25;;;23.40;99.90;;;;;;4939658;29;20404;-76
2021/07/15 12:20:08;;;;;;;6.93;3.30;;;23.30;99.90;;;;;;4953691;29;20236;-76
2021/07/15 12:23:10;;;;;;;3.47;2.92;;;23.30;99.90;;;;;;4948147;29;20012;-76
2021/07/15 12:25:37;;;;;;;5.70;3.28;;;23.50;99.90;;;;;;4937368;29;20039;-76
2021/07/15 12:28:06;;;;;;;3.92;3.28;;;23.50;99.90;;;;;;4947771;29;20114;-76
2021/07/15 12:30:40;;;;;;;5.32;3.63;;;23.80;99.90;;;;;;4953119;29;20042;-76
2021/07/15 12:33:05;;;;;;;7.65;3.50;;;23.80;99.90;;;;;;4941096;29;20031;-78
2021/07/15 12:35:33;;;;;;;7.68;3.33;;;23.60;99.90;;;;;;4953048;29;20038;-78
2021/07/15 12:38:34;;;;;;;4.47;3.45;;;23.80;99.90;;;;;;4952517;29;20098;-78
2021/07/15 12:41:33;;;;;;;5.47;3.28;;;23.80;99.90;;;;;;4952019;29;20050;-78
2021/07/15 12:44:03;;;;;;;5.03;3.03;;;23.80;99.90;;;;;;4941136;29;20064;-79
2021/07/15 12:46:31;;;;;;;5.82;3.22;;;24.20;99.90;;;;;;4952705;29;20019;-75
2021/07/15 12:49:02;;;;;;;7.78;3.03;;;24.20;99.90;;;;;;4953228;29;20039;-77
2021/07/15 12:51:50;;;;;;;6.65;3.50;;;24.10;99.90;;;;;;4952355;29;20027;-75
2021/07/15 12:54:35;;;;;;;4.13;3.03;;;24.10;99.90;;;;;;4952102;29;20061;-76
2021/07/15 12:57:07;;;;;;;4.35;3.25;;;24.40;99.90;;;;;;4952419;29;20054;-76
2021/07/15 12:59:34;;;;;;;4.60;3.20;;;24.40;99.90;;;;;;4952587;29;20020;-79